Date,TemperatureHighF,TemperatureAvgF,TemperatureLowF,DewpointHighF,DewpointAvgF,DewpointLowF,HumidityHigh,HumidityAvg,HumidityLow,PressureMaxIn,PressureMinIn,WindSpeedMaxMPH,WindSpeedAvgMPH,GustSpeedMaxMPH,PrecipitationSumIn
2013-1-1,57.7,45.8,33.8,42.9,35.0,25.3,73,66,51,30.22,30.15,10,1,10,0.00
2013-1-2,57.9,50.5,46.2,46.8,37.7,28.5,72,62,50,30.34,30.14,14,2,14,0.35
2013-1-3,66.0,52.1,44.2,47.5,39.3,30.1,73,62,44,30.55,30.34,12,2,12,0.00
2013-1-4,60.4,47.1,38.8,44.4,35.2,25.1,73,63,55,30.54,30.34,4,0,4,0.00
2013-1-5,55.7,45.8,39.3,46.3,32.6,23.9,73,60,50,30.35,30.14,7,1,7,0.00
2013-1-6,63.3,54.7,39.9,45.1,37.6,24.2,73,54,36,30.25,30.16,21,6,21,0.00
2013-1-7,64.2,49.0,43.5,49.0,35.3,27.0,73,59,31,30.31,30.12,8,1,8,0.00
2013-1-8,59.7,49.1,42.6,39.2,36.5,33.5,73,63,42,30.36,30.27,7,1,7,0.00
2013-1-9,57.0,52.2,45.1,46.1,42.0,35.3,73,68,63,30.28,30.19,5,0,5,0.00
2013-1-10,55.5,51.1,48.7,45.5,38.2,28.7,73,62,46,30.19,29.88,13,1,13,0.06
2013-1-11,59.0,50.5,42.9,49.8,35.5,26.1,74,57,44,29.93,29.81,17,3,17,0.10
2013-1-12,59.5,49.3,39.3,45.6,36.1,23.6,73,61,49,30.13,29.88,12,2,12,0.02
2013-1-13,57.3,50.1,43.3,47.0,38.6,27.8,74,65,49,30.12,29.93,16,3,16,0.73
2013-1-14,57.7,54.0,49.2,47.7,43.7,33.6,74,68,51,30.02,29.89,20,6,20,0.56
2013-1-15,50.7,46.5,44.0,42.7,32.5,25.8,74,59,48,30.02,29.72,6,1,6,0.07
2013-1-16,50.9,44.6,38.4,42.0,34.6,24.3,75,68,53,29.72,29.54,23,4,23,0.50
2013-1-17,53.2,46.0,40.8,45.1,31.9,24.4,75,59,44,29.58,29.38,15,2,15,0.73
2013-1-18,48.3,41.7,36.6,38.2,32.3,24.9,75,69,58,29.66,29.37,14,2,14,0.10
2013-1-19,56.6,45.2,34.8,48.2,35.1,21.5,75,68,57,29.75,29.65,20,3,20,0.04
2013-1-20,63.1,60.1,57.0,52.8,50.7,47.2,74,71,65,29.67,29.54,20,7,20,0.20
2013-1-21,56.8,51.7,48.5,48.5,37.9,29.8,74,60,43,29.65,29.41,20,4,20,0.84
2013-1-22,55.2,48.7,44.4,44.4,35.9,25.6,75,62,45,29.90,29.64,23,4,23,0.33
2013-1-23,57.2,46.2,41.1,44.0,32.8,25.7,75,60,50,29.91,29.66,19,3,19,0.89
2013-1-24,51.4,46.5,43.1,43.6,34.1,25.3,75,63,47,29.66,29.43,20,2,20,0.57
2013-1-25,53.7,47.5,41.5,39.9,33.8,23.9,76,59,49,29.67,29.47,19,5,19,0.00
2013-1-26,52.3,44.5,37.0,36.2,31.9,29.4,77,62,47,29.91,29.65,11,2,11,0.00
2013-1-27,54.8,42.9,33.2,36.1,31.2,24.8,77,65,42,30.06,29.91,10,1,10,0.00
2013-1-28,53.2,45.6,39.0,41.3,35.8,29.6,75,69,50,30.07,29.92,24,3,24,0.08
2013-1-29,60.6,50.3,42.4,41.3,37.2,33.7,76,62,44,30.30,30.07,18,3,18,0.00
2013-1-30,59.0,49.7,40.8,48.0,38.9,26.0,75,66,53,30.30,30.22,17,2,17,0.00
2013-1-31,67.8,55.5,48.7,52.3,43.4,31.3,74,64,50,30.28,30.17,13,2,13,0.00
2013-2-1,61.5,55.4,48.3,51.9,44.1,28.9,75,66,44,30.25,29.87,20,4,20,0.00
2013-2-2,63.5,57.2,47.4,49.4,46.7,36.0,76,68,53,29.87,29.36,34,9,34,0.26
2013-2-3,55.0,47.5,43.7,45.4,38.2,27.5,77,70,49,30.00,29.50,19,5,19,0.39
2013-2-4,56.8,46.8,37.2,35.2,28.9,21.9,76,52,29,30.20,29.99,12,2,12,0.02
2013-2-5,57.3,46.5,33.4,43.9,36.4,25.6,77,69,50,30.20,29.86,19,3,19,0.08
2013-2-6,57.7,50.8,41.1,48.0,40.8,28.3,76,69,48,29.87,29.57,21,4,21,0.04
2013-2-7,48.9,43.3,39.0,41.6,35.2,29.6,77,73,63,29.62,29.55,17,2,17,0.05
2013-2-8,49.6,43.5,40.8,36.6,31.8,27.3,77,63,49,29.79,29.59,12,2,12,0.00
2013-2-9,47.1,40.6,34.5,31.7,29.2,26.0,77,64,47,29.93,29.76,16,2,16,0.00
2013-2-10,48.7,38.9,33.6,30.3,26.1,19.3,77,63,33,30.03,29.90,12,2,12,0.00
2013-2-11,54.5,45.0,33.0,43.4,35.2,25.7,77,69,58,30.04,29.69,23,6,23,0.25
2013-2-12,52.5,45.2,41.1,43.9,33.3,24.5,76,63,50,29.74,29.64,16,4,16,1.14
2013-2-13,55.5,45.3,41.5,41.9,31.0,23.1,76,58,48,29.88,29.69,16,3,16,0.06
2013-2-14,55.2,46.2,39.7,39.2,34.8,26.6,77,65,50,30.04,29.88,23,4,23,0.00
2013-2-15,55.4,44.2,35.7,42.0,34.9,27.4,77,70,56,30.07,30.02,13,2,13,0.00
2013-2-16,53.4,49.0,41.5,39.4,37.3,25.5,76,64,53,30.12,30.03,21,5,21,0.00
2013-2-17,57.3,46.9,38.1,40.6,35.8,31.3,77,67,44,30.12,30.02,10,2,10,0.00
2013-2-18,54.3,45.8,38.3,42.1,35.5,27.3,76,68,54,30.05,29.97,10,1,10,0.00
2013-2-19,57.0,44.5,34.5,37.8,30.7,21.9,77,59,40,30.04,29.97,10,1,10,0.00
2013-2-20,57.2,45.1,36.3,39.8,34.0,27.8,77,66,47,30.07,29.96,11,2,11,0.00
2013-2-21,50.7,43.5,37.5,42.3,35.9,29.1,77,74,67,29.97,29.75,5,1,5,0.00
2013-2-22,53.7,46.4,36.6,46.3,35.1,24.9,76,65,46,29.76,29.56,19,3,19,0.00
2013-2-23,60.6,53.7,44.7,47.6,43.0,30.7,77,67,55,29.72,29.55,28,6,28,0.39
2013-2-24,54.6,47.5,39.3,46.5,38.1,31.5,77,70,51,30.03,29.71,14,3,16,0.08
2013-2-25,51.9,43.8,37.7,43.1,35.7,30.8,78,73,63,30.11,30.01,10,1,10,0.14
2013-2-26,52.7,46.1,38.8,40.4,36.6,29.0,78,70,54,30.17,30.05,13,2,13,0.00
2013-2-27,57.9,47.0,37.5,43.0,35.5,26.0,77,65,43,30.25,30.15,11,1,11,0.00
2013-2-28,60.6,48.5,37.9,41.4,37.2,29.5,77,66,43,30.29,30.19,10,2,10,0.00
2013-3-1,59.5,51.4,41.9,41.1,38.5,35.1,78,63,44,30.20,29.91,17,2,17,0.00
2013-3-2,54.6,52.5,48.3,42.3,39.6,34.2,69,62,52,30.04,29.80,30,9,30,0.00
2013-3-3,62.7,51.7,42.6,41.3,33.5,27.6,77,52,27,30.14,30.03,14,3,14,0.00
2013-3-4,63.1,49.7,39.0,46.0,38.7,28.8,76,67,48,30.26,30.13,12,1,12,0.00
2013-3-5,66.0,51.6,39.0,45.6,37.9,28.7,77,61,28,30.26,30.06,13,1,13,0.00
2013-3-6,64.2,57.2,51.4,50.5,44.2,32.7,76,64,35,30.08,29.81,39,8,39,0.53
2013-3-7,62.9,58.3,56.1,54.8,47.7,40.7,76,68,57,29.87,29.79,19,5,19,0.04
2013-3-8,64.7,57.8,51.8,53.0,44.6,29.6,76,62,41,29.87,29.74,18,5,18,0.35
2013-3-9,65.3,58.7,53.9,51.8,47.3,40.1,76,66,46,29.87,29.77,20,6,20,0.00
2013-3-10,65.4,58.3,54.1,52.5,46.1,35.2,76,64,48,29.79,29.67,21,6,21,0.10
2013-3-11,60.9,56.7,52.7,50.8,47.9,40.8,76,73,64,29.71,29.65,18,6,18,0.25
2013-3-12,58.8,52.5,46.9,49.2,42.8,30.0,77,70,49,29.69,29.58,22,5,22,1.59
2013-3-13,57.5,52.2,48.7,48.0,42.4,32.7,77,69,52,29.61,29.32,21,4,21,0.45
2013-3-14,51.6,48.2,44.2,43.2,34.3,25.9,77,59,43,29.37,29.13,12,2,12,1.18
2013-3-15,45.3,41.7,36.1,35.4,29.8,21.3,78,63,50,29.91,29.35,20,5,20,0.83
2013-3-16,53.4,43.3,34.8,32.6,28.8,23.4,78,59,33,30.20,29.91,12,2,12,0.00
2013-3-17,55.5,47.6,35.4,42.4,35.0,28.8,78,63,46,30.19,29.91,20,4,20,0.00
2013-3-18,64.5,57.4,51.9,51.6,46.0,35.7,76,66,45,29.91,29.64,30,9,30,0.31
2013-3-19,61.7,54.4,44.7,45.7,41.9,36.6,77,63,47,29.90,29.76,18,4,18,0.00
2013-3-20,64.9,52.8,40.6,43.3,37.4,31.8,77,59,35,29.90,29.75,9,1,9,0.00
2013-3-21,62.2,55.5,46.9,47.4,39.6,27.9,77,56,36,30.02,29.69,22,4,22,0.08
2013-3-22,61.5,51.9,41.3,46.8,41.3,33.0,77,68,53,30.02,29.93,14,2,14,0.00
2013-3-23,67.8,54.5,42.4,48.2,40.4,26.8,76,60,35,30.01,29.85,16,2,16,0.00
2013-3-24,75.3,61.4,48.0,46.9,40.0,28.7,77,50,19,29.86,29.52,23,4,23,0.00
2013-3-25,62.0,57.8,54.6,51.2,47.4,34.0,76,69,45,29.56,29.38,20,7,20,0.27
2013-3-26,58.8,54.1,51.0,50.0,43.9,30.3,76,69,46,29.66,29.56,19,3,19,0.22
2013-3-27,60.4,54.9,49.2,50.5,45.4,33.3,76,70,54,29.89,29.65,20,4,20,0.02
2013-3-28,63.5,56.7,51.9,53.1,46.9,38.7,76,70,54,29.97,29.86,16,2,16,0.00
2013-3-29,69.6,60.5,52.3,56.1,44.6,27.5,75,57,38,29.96,29.86,19,4,19,0.04
2013-3-30,66.0,58.2,51.2,53.0,47.1,34.8,76,67,51,29.87,29.60,19,6,19,0.16
2013-3-31,58.4,56.0,53.4,50.5,47.3,43.3,77,73,60,29.77,29.61,23,10,23,0.37
2013-4-1,66.0,57.4,51.4,50.3,44.9,33.8,76,64,45,29.82,29.67,23,4,23,0.20
2013-4-2,61.7,56.0,51.4,52.8,45.8,35.0,76,69,51,29.68,29.49,24,8,24,0.58
2013-4-3,61.1,55.5,50.7,50.1,44.6,27.3,77,67,39,29.86,29.59,18,3,18,0.14
2013-4-4,70.8,58.6,46.0,50.7,41.3,27.8,76,54,33,29.89,29.61,25,3,25,0.00
2013-4-5,67.8,60.8,53.9,53.8,48.5,38.0,77,65,34,29.86,29.47,21,7,21,0.00
2013-4-6,70.5,59.1,47.8,51.9,44.5,30.6,77,59,44,29.87,29.75,21,2,21,0.00
2013-4-7,67.8,60.5,55.0,44.9,41.2,37.7,63,50,36,29.79,29.67,18,5,18,0.00
2013-4-8,64.4,56.5,49.6,48.4,42.8,36.9,76,61,45,29.96,29.79,18,4,18,0.00
2013-4-9,66.0,58.7,52.7,51.2,48.2,44.8,76,69,48,30.04,29.91,18,6,18,0.00
2013-4-10,64.4,57.1,51.8,50.9,48.0,42.3,76,72,56,30.10,29.97,18,3,18,0.00
2013-4-11,68.7,58.9,48.5,52.7,45.8,36.0,77,63,41,30.12,30.07,13,2,13,0.00
2013-4-12,70.8,60.2,49.8,52.6,47.2,38.1,76,63,44,30.11,30.03,21,3,21,0.00
2013-4-13,70.1,59.7,50.1,54.7,48.4,40.8,76,67,46,30.32,30.09,18,3,18,0.00
2013-4-14,78.0,62.1,49.2,57.0,47.8,34.7,76,61,31,30.37,30.28,16,2,16,0.00
2013-4-15,77.1,63.7,51.2,51.0,44.8,36.1,77,53,25,30.33,30.18,15,2,15,0.00
2013-4-16,75.2,63.1,51.8,54.9,46.8,42.0,76,58,32,30.23,30.16,13,2,13,0.00
2013-4-17,77.5,63.7,52.3,50.0,42.4,30.0,76,50,20,30.26,30.20,18,2,18,0.00
2013-4-18,76.6,63.0,48.9,52.5,40.2,28.7,67,46,19,30.24,30.10,16,3,16,0.00
2013-4-19,69.0,59.4,52.1,56.6,49.9,44.1,76,71,52,30.12,30.02,10,1,10,0.00
2013-4-20,74.4,63.7,54.1,56.4,50.8,41.3,76,64,45,30.08,30.01,15,3,15,0.00
2013-4-21,67.4,59.8,53.7,53.3,47.4,41.3,77,65,42,30.10,30.02,15,2,15,0.16
2013-4-22,64.7,55.1,48.7,50.9,43.6,34.8,77,66,44,30.11,29.97,22,4,22,0.11
2013-4-23,71.7,59.5,46.2,53.3,45.9,35.1,77,62,45,30.30,30.10,18,3,18,0.00
2013-4-24,78.9,67.0,55.0,53.8,50.4,46.9,76,57,33,30.36,30.28,17,4,19,0.00
2013-4-25,83.6,70.1,56.8,54.1,49.9,40.7,76,53,25,30.31,30.15,12,2,12,0.00
2013-4-26,81.6,67.9,56.8,57.8,49.1,36.5,76,56,22,30.19,30.02,17,3,17,0.12
2013-4-27,66.5,60.4,57.3,55.8,48.9,37.4,76,66,45,30.02,29.88,16,2,16,0.47
2013-4-28,82.9,68.8,54.6,57.7,49.7,36.7,76,52,31,30.04,29.94,12,2,12,0.00
2013-4-29,87.0,73.5,59.5,59.3,50.1,41.1,75,48,23,30.08,30.03,18,4,18,0.00
2013-4-30,91.7,73.7,60.6,61.4,52.9,46.8,69,51,24,30.15,30.05,10,2,10,0.00
2013-5-1,87.4,74.1,60.9,57.9,52.3,38.1,75,50,20,30.11,30.02,14,2,14,0.00
2013-5-2,84.7,72.8,61.7,59.5,52.3,41.2,74,51,23,30.04,29.94,15,4,15,0.00
2013-5-3,82.0,69.6,57.7,57.5,53.6,48.5,76,59,39,30.01,29.94,15,2,15,0.00
2013-5-4,88.5,72.2,58.1,59.5,54.6,47.6,76,57,26,30.07,29.92,15,2,15,0.05
2013-5-5,84.0,72.1,61.5,61.5,54.8,43.3,75,56,34,30.08,29.95,16,3,16,0.09
2013-5-6,71.7,66.8,60.6,61.7,56.9,50.9,76,71,61,30.07,29.93,18,5,18,0.06
2013-5-7,70.5,63.5,55.5,56.7,51.2,39.0,76,65,49,30.08,30.02,19,3,19,0.04
2013-5-8,74.1,65.3,57.9,58.9,51.0,36.7,76,60,43,30.08,29.95,14,2,14,0.00
2013-5-9,67.1,60.5,57.0,58.7,48.0,40.2,76,64,51,30.03,29.98,3,0,3,0.00
2013-5-10,75.5,70.0,65.4,59.0,56.9,52.1,75,64,46,30.03,29.99,11,3,11,0.00
2013-5-11,73.9,66.1,58.2,59.2,53.9,41.8,75,65,53,30.03,29.92,18,3,18,0.00
2013-5-12,72.1,67.0,59.7,55.4,53.1,48.3,75,62,48,29.96,29.89,17,5,17,0.00
2013-5-13,76.2,65.1,57.9,57.0,50.9,43.5,77,62,33,30.03,29.92,25,3,25,0.00
2013-5-14,78.4,65.0,51.9,50.0,45.6,38.9,75,52,25,30.07,29.97,17,3,17,0.00
2013-5-15,76.1,65.7,53.4,55.4,47.5,32.4,77,56,22,29.97,29.81,14,2,14,0.00
2013-5-16,83.1,74.0,66.2,59.5,57.0,52.5,70,56,44,29.70,29.55,18,6,18,0.02
2013-5-17,72.5,66.6,59.5,58.9,55.2,48.7,76,67,49,30.02,29.63,20,6,20,0.02
2013-5-18,77.1,61.2,52.8,54.5,48.1,42.1,76,64,33,30.08,30.01,6,1,6,0.00
2013-5-19,72.3,67.1,59.1,52.5,46.8,40.4,65,49,37,30.15,30.05,18,6,18,0.00
2013-5-20,72.3,67.4,56.3,53.4,50.5,45.8,74,55,42,30.18,30.14,21,6,21,0.00
2013-5-21,82.2,64.4,50.3,55.7,48.3,40.8,77,60,26,30.16,29.86,14,2,14,0.08
2013-5-22,81.3,68.6,59.5,63.1,56.4,45.2,76,66,47,29.86,29.40,29,5,29,0.80
2013-5-23,69.2,62.6,58.8,57.3,49.6,36.2,76,63,43,29.76,29.46,21,4,21,0.18
2013-5-24,66.0,61.9,58.2,53.4,49.8,44.2,76,65,48,29.96,29.76,21,6,21,0.02
2013-5-25,64.0,58.8,52.8,51.8,47.2,43.1,77,66,52,29.99,29.93,23,6,23,0.07
2013-5-26,66.0,59.5,52.8,49.1,45.2,41.3,77,60,45,30.10,29.93,20,6,20,0.04
2013-5-27,70.3,59.9,48.9,51.8,46.2,39.1,77,62,40,30.10,29.98,15,2,15,0.00
2013-5-28,72.5,56.2,47.8,54.5,47.1,40.3,78,72,45,29.99,29.69,12,1,12,0.00
2013-5-29,69.0,62.5,53.7,57.1,52.7,46.3,77,71,58,29.83,29.74,21,5,21,0.00
2013-5-30,65.1,59.1,51.8,54.3,47.3,39.7,77,66,52,29.89,29.79,22,5,22,0.36
2013-5-31,63.6,57.0,50.1,53.4,45.0,34.7,77,65,44,29.89,29.81,19,4,19,1.51
2013-6-1,66.2,58.9,53.2,54.6,42.3,29.6,76,55,39,29.86,29.79,20,4,20,0.33
2013-6-2,71.4,60.2,49.1,57.9,44.2,27.8,76,56,40,29.99,29.85,16,3,16,0.00
2013-6-3,75.0,67.6,59.3,57.1,52.1,42.0,76,58,49,30.02,29.94,62,6,62,0.10
2013-6-4,69.4,60.8,56.8,59.0,46.5,36.1,76,60,45,30.05,29.97,12,2,12,0.29
2013-6-5,73.4,64.1,53.7,60.4,49.5,31.0,76,60,41,30.13,30.04,14,2,14,0.00
2013-6-6,80.2,68.3,56.1,61.2,54.0,38.5,76,61,49,30.14,30.03,12,2,12,0.00
2013-6-7,85.6,71.8,60.2,60.9,55.5,47.9,77,59,30,30.06,30.00,15,3,15,0.00
2013-6-8,81.5,71.1,60.4,61.1,57.7,49.2,76,63,48,30.06,29.98,17,3,17,0.00
2013-6-9,84.0,70.9,60.9,63.3,54.8,45.9,76,58,35,30.05,29.91,16,2,16,0.00
2013-6-10,76.6,68.4,59.1,60.6,55.3,49.4,77,64,41,29.98,29.89,61,3,61,0.00
2013-6-11,76.1,67.4,59.1,59.4,56.1,49.4,77,68,50,30.01,29.94,13,2,13,0.00
2013-6-12,82.7,70.5,57.5,60.3,51.6,42.7,76,53,30,30.07,29.99,25,3,25,0.00
2013-6-13,85.8,74.9,66.3,58.7,51.7,44.4,66,45,29,30.08,30.01,18,4,18,0.00
2013-6-14,84.7,73.6,61.3,62.7,56.4,52.6,76,57,38,30.11,30.04,16,3,16,0.00
2013-6-15,82.9,73.3,62.7,65.9,60.9,54.1,76,66,52,30.13,30.09,61,3,61,0.00
2013-6-16,86.5,75.1,64.2,66.9,62.3,55.7,76,66,48,30.14,30.08,15,3,15,0.00
2013-6-17,90.3,78.3,66.7,69.8,64.9,57.9,76,65,49,30.12,30.03,14,3,14,0.00
2013-6-18,94.6,79.8,70.8,69.8,66.3,60.9,76,65,40,30.09,30.03,12,1,12,0.00
2013-6-19,92.8,80.1,71.7,69.4,66.6,63.4,76,65,43,30.09,30.04,17,2,17,0.00
2013-6-20,95.1,84.5,71.9,68.7,62.8,52.9,76,51,26,30.10,30.04,14,3,14,0.00
2013-6-21,93.5,82.2,68.3,67.4,61.6,52.4,76,53,28,30.09,30.05,14,3,14,0.00
2013-6-22,89.4,77.8,66.9,68.7,62.7,57.0,77,62,35,30.09,30.04,25,2,25,0.00
2013-6-23,85.2,74.3,65.1,67.1,61.7,56.9,77,66,39,30.09,30.02,19,4,19,0.00
2013-6-24,76.8,70.8,65.1,63.3,57.6,51.2,77,64,45,30.04,29.97,19,4,19,0.00
2013-6-25,78.9,71.0,64.2,61.5,57.8,53.8,77,64,47,30.10,29.99,15,4,15,0.00
2013-6-26,82.2,71.2,59.0,60.2,55.5,49.9,77,59,36,30.11,30.04,17,3,17,0.00
2013-6-27,79.8,70.8,62.7,59.5,55.1,51.4,74,58,41,30.12,30.08,13,2,13,0.00
2013-6-28,79.1,69.8,59.1,61.0,55.4,49.4,78,62,38,30.12,30.03,18,4,18,0.00
2013-6-29,78.6,67.5,61.3,59.5,55.6,50.6,78,67,38,30.07,29.98,25,2,25,0.10
2013-6-30,82.2,69.3,56.8,57.3,53.8,49.6,78,60,34,30.14,30.04,14,2,14,0.00
2013-7-1,84.5,69.7,58.8,58.1,53.9,50.8,78,60,32,30.16,30.11,25,2,25,0.00
2013-7-2,86.7,79.8,68.9,64.1,59.9,55.3,76,52,38,30.12,30.07,17,4,17,0.00
2013-7-3,85.1,74.4,63.3,63.3,59.0,55.3,77,60,42,30.11,30.02,15,2,15,0.00
2013-7-4,81.3,69.8,63.5,65.0,58.7,47.6,77,68,48,30.08,30.02,10,2,10,0.04
2013-7-5,89.4,76.5,60.0,64.9,53.6,42.7,77,47,29,30.13,30.06,61,4,61,0.00
2013-7-6,90.3,78.7,68.1,66.3,58.6,50.6,76,52,33,30.13,30.06,25,3,25,0.08
2013-7-7,91.4,75.3,67.8,66.0,61.7,57.6,76,65,37,30.13,30.06,17,2,17,0.08
2013-7-8,87.2,73.9,65.8,66.9,62.2,57.6,77,68,44,30.16,30.09,10,2,14,0.08
2013-7-9,87.0,71.7,65.3,67.4,57.2,42.7,77,61,41,30.13,30.02,17,2,17,1.70
2013-7-10,86.7,72.5,62.4,67.8,57.3,42.3,76,60,45,30.04,29.93,25,2,25,0.02
2013-7-11,84.7,75.2,66.7,68.9,61.4,50.3,77,63,49,30.01,29.93,25,2,25,0.00
2013-7-12,84.5,76.1,67.6,70.5,64.2,51.6,78,67,55,30.09,30.00,15,2,15,0.00
2013-7-13,87.0,80.9,71.7,72.0,67.5,61.2,78,65,43,30.10,30.04,18,4,18,0.00
2013-7-14,86.3,76.6,69.6,71.6,65.3,61.0,78,69,47,30.08,30.03,18,2,18,0.00
2013-7-15,89.7,76.8,64.2,64.4,60.5,54.8,78,60,34,30.09,30.04,12,2,12,0.00
2013-7-16,90.8,78.4,63.6,63.2,58.1,53.0,76,52,31,30.15,30.09,13,2,13,0.00
2013-7-17,90.8,78.6,66.7,65.3,57.0,52.1,68,49,28,30.15,30.07,14,2,14,0.00
2013-7-18,88.8,78.2,67.8,62.1,59.8,55.6,73,55,39,30.13,30.09,13,2,13,0.00
2013-7-19,87.4,75.2,66.0,68.0,62.1,55.5,78,65,45,30.13,30.06,25,2,25,0.71
2013-7-20,87.4,75.5,64.0,68.2,61.7,50.7,77,63,45,30.07,30.00,13,2,13,0.00
2013-7-21,90.3,76.5,67.8,70.5,62.4,54.7,78,63,34,30.07,30.00,16,1,16,0.00
2013-7-22,92.8,78.5,65.4,66.7,61.7,58.0,78,59,32,30.05,29.98,12,2,12,0.00
2013-7-23,92.8,79.3,66.3,70.5,64.6,59.1,78,63,41,30.04,29.97,15,2,15,0.00
2013-7-24,89.6,78.8,68.5,71.7,66.5,59.5,78,67,46,30.10,30.03,13,2,13,0.00
2013-7-25,89.9,80.1,70.8,72.3,67.3,58.1,78,66,52,30.11,30.07,12,2,12,0.00
2013-7-26,91.7,80.4,69.9,74.0,68.3,59.6,78,67,49,30.10,30.03,15,2,15,0.00
2013-7-27,95.3,82.4,71.4,75.0,69.5,61.8,78,66,38,30.05,29.99,15,2,15,0.00
2013-7-28,98.2,84.0,72.6,76.1,71.0,64.2,78,67,39,30.13,30.03,14,2,14,0.00
2013-7-29,95.7,84.0,72.6,73.7,68.0,62.5,78,61,35,30.15,30.07,14,2,14,0.00
2013-7-30,92.8,82.0,72.1,73.1,66.8,55.9,78,62,32,30.09,29.99,14,2,14,0.00
2013-7-31,91.4,82.2,72.1,67.1,57.9,50.3,73,46,29,30.02,29.97,25,3,25,0.00
2013-8-1,91.9,81.0,67.4,61.7,56.6,52.0,70,45,32,30.07,30.00,61,4,61,0.00
2013-8-2,95.0,82.8,70.1,67.2,59.9,54.8,71,48,31,30.11,30.04,25,2,25,0.00
2013-8-3,94.8,84.1,69.6,72.1,65.2,60.4,74,55,36,30.13,30.07,16,2,16,0.00
2013-8-4,99.3,83.7,70.1,75.3,67.4,61.0,76,60,32,30.13,30.07,12,2,12,0.00
2013-8-5,81.1,75.3,71.7,69.0,66.5,64.3,78,74,67,30.10,30.07,3,0,3,0.00
2013-8-6,95.5,89.1,78.4,74.9,72.4,68.4,76,59,47,30.08,30.01,15,3,15,0.00
2013-8-7,97.3,84.4,73.2,75.5,70.9,65.9,79,66,41,30.04,29.99,13,2,13,0.00
2013-8-8,97.7,85.0,72.6,74.3,69.7,64.5,79,62,38,30.04,29.99,14,2,14,0.00
2013-8-9,96.6,81.6,68.3,74.3,66.4,56.0,78,62,27,30.02,29.88,24,4,24,0.39
2013-8-10,88.3,76.2,65.3,66.7,61.6,57.3,79,62,41,29.97,29.88,11,2,11,0.00
2013-8-11,93.7,79.9,68.7,67.4,62.8,59.3,77,58,36,30.02,29.94,13,2,13,0.00
2013-8-12,89.7,79.5,69.9,69.9,66.0,61.2,79,65,42,30.07,30.00,16,2,16,0.00
2013-8-13,89.2,78.7,68.3,70.0,66.2,60.2,78,67,48,30.07,30.01,16,2,16,0.00
2013-8-14,87.9,78.6,70.1,72.1,67.0,61.0,78,68,55,30.04,29.96,13,2,13,0.00
2013-8-16,93.0,85.5,73.7,65.8,62.2,56.7,74,48,32,30.10,30.03,25,3,25,0.00
2013-8-17,92.4,79.8,68.7,71.4,65.8,61.9,79,64,40,30.11,30.05,15,2,15,0.00
2013-8-18,90.8,79.4,67.8,68.3,64.7,61.1,79,63,42,30.14,30.07,25,2,25,0.00
2013-8-19,91.5,78.4,66.0,70.4,64.3,59.3,80,64,40,30.12,30.03,17,2,17,0.00
2013-8-20,86.5,76.8,66.7,69.8,63.5,57.3,79,65,44,30.07,29.98,17,2,17,0.00
2013-8-21,87.2,77.4,67.8,64.1,60.4,57.8,74,57,43,30.06,29.99,25,6,25,0.00
2013-8-22,91.7,80.7,69.4,64.1,59.8,57.1,73,51,33,30.06,29.99,14,2,14,0.00
2013-8-23,88.8,77.8,68.5,70.4,64.4,60.7,79,65,42,30.08,30.02,14,1,14,0.00
2013-8-24,87.2,77.0,67.8,68.9,63.8,59.9,79,65,42,30.08,29.98,13,2,13,0.00
2013-8-25,83.1,71.8,65.3,67.9,62.4,52.5,79,73,57,30.02,29.90,21,1,21,0.57
2013-8-26,86.5,76.2,66.7,69.9,63.2,53.6,78,65,44,29.96,29.90,25,2,25,0.00
2013-8-27,85.8,75.5,69.4,69.8,64.2,54.5,79,69,53,29.97,29.87,25,2,25,0.18
2013-8-28,82.7,74.2,66.9,68.2,61.6,56.3,78,66,44,30.06,29.92,25,3,25,0.00
2013-8-29,82.9,72.7,64.0,64.9,61.1,55.9,79,68,49,30.13,30.05,8,1,8,0.00
2013-8-30,84.3,74.9,64.5,61.5,58.7,53.4,79,59,44,30.12,30.01,15,3,15,0.00
2013-8-31,87.8,76.1,65.3,58.4,52.9,46.4,71,47,26,30.11,30.04,25,3,25,0.00
2013-9-1,90.1,75.2,65.3,64.1,55.1,46.6,79,52,28,30.14,30.04,25,2,25,0.00
2013-9-2,88.5,74.7,61.8,62.6,58.3,52.6,80,60,32,30.22,30.11,13,1,13,0.00
2013-9-3,86.9,73.4,64.2,59.7,55.3,48.7,76,56,28,30.24,30.19,13,1,13,0.00
2013-9-4,90.3,78.3,64.2,64.4,52.5,48.5,64,43,25,30.25,30.15,18,3,18,0.00
2013-9-5,91.2,76.1,61.8,64.0,56.4,49.2,74,53,27,30.17,30.02,15,1,15,0.00
2013-9-6,90.5,75.4,63.1,66.7,60.5,56.6,80,62,34,30.03,29.94,13,1,13,0.00
2013-9-7,89.2,75.8,65.8,68.9,63.8,58.2,80,68,41,30.17,30.02,25,1,25,0.00
2013-9-8,88.1,76.2,66.3,70.1,65.2,58.7,79,70,51,30.22,30.15,13,2,13,0.00
2013-9-9,83.3,75.4,67.6,70.4,65.1,59.4,79,71,53,30.22,30.13,18,3,18,0.00
2013-9-10,79.5,73.5,66.3,67.8,64.6,59.7,81,74,62,30.17,30.00,16,2,25,0.35
2013-9-11,80.9,71.8,64.0,66.7,59.6,50.3,79,66,51,30.09,30.03,15,3,15,0.59
2013-9-12,76.8,70.1,62.2,66.3,59.0,53.8,80,68,48,30.05,29.99,19,3,19,0.00
2013-9-13,78.9,69.1,60.6,61.6,56.8,53.7,80,66,44,30.17,30.02,18,2,18,0.00
2013-9-14,80.0,69.6,60.4,62.9,57.8,52.8,80,67,42,30.18,30.11,25,2,25,0.00
2013-9-15,77.9,68.7,60.6,62.0,57.7,52.6,79,69,51,30.14,29.89,17,3,17,0.00
2013-9-16,79.3,69.5,62.9,64.3,58.7,50.7,80,69,51,29.89,29.80,14,2,14,0.45
2013-9-17,75.3,67.2,61.5,64.5,56.8,49.0,80,70,56,29.82,29.75,26,3,26,0.10
2013-9-18,76.2,67.1,58.1,61.0,56.3,49.6,80,69,53,29.85,29.78,14,2,14,0.00
2013-9-19,78.8,70.7,65.1,65.1,60.3,55.5,80,70,55,29.87,29.78,14,2,14,0.02
2013-9-20,73.5,68.3,64.9,61.8,60.3,58.2,80,76,65,30.08,30.02,4,0,4,0.00
2013-9-21,86.1,71.6,59.9,63.9,56.7,46.1,79,62,26,30.17,30.07,14,2,14,0.00
2013-9-22,77.1,70.8,60.2,57.8,48.8,41.7,72,47,32,30.22,30.16,25,4,25,0.00
2013-9-23,80.6,65.8,53.7,55.1,50.0,44.8,80,59,34,30.21,30.11,12,1,12,0.00
2013-9-24,80.7,67.1,55.4,60.8,55.7,48.5,80,68,43,30.14,30.08,25,2,25,0.00
2013-9-25,78.2,67.7,59.0,62.8,57.4,51.2,80,70,56,30.12,30.05,11,2,11,0.00
2013-9-26,79.8,69.5,60.0,64.8,59.4,52.3,79,71,54,30.10,30.02,9,1,9,0.00
2013-9-27,80.4,70.1,62.4,66.1,60.1,52.0,80,71,57,30.07,30.00,12,1,12,0.00
2013-9-28,82.2,71.2,63.3,66.0,60.2,51.6,79,69,52,30.04,29.96,61,2,61,0.00
2013-9-29,80.4,71.0,61.7,66.5,59.8,52.0,79,68,51,29.99,29.79,13,2,13,0.00
2013-9-30,76.1,70.8,64.2,66.1,61.7,53.0,80,73,59,29.82,29.65,19,4,19,0.94
2013-10-1,77.7,70.1,62.7,63.2,59.3,50.6,80,69,54,29.85,29.69,11,2,11,0.00
2013-10-2,75.0,67.4,61.8,60.6,53.0,47.6,79,61,47,30.11,29.84,22,5,22,0.00
2013-10-3,73.0,63.5,56.1,49.0,46.6,42.8,69,55,35,30.29,30.11,25,7,25,0.00
2013-10-4,77.3,63.9,52.3,56.1,49.4,45.1,78,61,38,30.33,30.28,8,1,8,0.00
2013-10-5,64.4,61.9,59.9,57.2,52.1,47.0,81,71,59,30.32,30.13,10,1,10,1.10
2013-10-6,77.3,70.8,62.0,66.2,60.7,47.1,80,70,58,30.11,30.06,14,2,14,0.88
2013-10-7,79.3,69.4,60.4,66.9,57.8,46.2,80,67,53,30.18,30.08,10,2,10,1.36
2013-10-8,74.6,65.5,58.2,62.6,55.1,46.2,80,70,59,30.20,30.14,25,2,25,0.09
2013-10-9,74.8,65.4,59.5,63.4,54.3,47.1,80,68,55,30.18,30.08,16,3,16,0.26
2013-10-10,74.4,66.0,58.1,63.1,54.1,45.3,80,66,55,30.11,29.92,61,3,61,0.26
2013-10-11,75.0,66.5,59.7,65.6,57.3,47.6,80,73,62,30.11,29.92,12,2,12,0.64
2013-10-12,74.3,65.7,61.7,66.1,55.6,49.2,80,70,62,30.25,30.08,12,1,12,0.47
2013-10-13,82.7,68.2,58.8,65.8,55.6,45.7,80,65,47,30.20,30.13,6,1,6,0.00
2013-10-14,83.4,68.0,57.3,62.7,55.1,46.8,80,65,34,30.20,30.11,5,1,7,0.00
2013-10-15,77.0,66.9,58.8,62.4,56.6,49.8,80,70,50,30.16,30.02,8,1,8,0.00
2013-10-16,74.3,65.1,59.3,65.3,56.9,51.0,81,75,67,30.02,29.74,17,2,17,0.69
2013-10-17,77.1,62.1,50.1,54.3,48.9,43.7,82,65,32,30.07,29.91,8,1,8,0.00
2013-10-18,76.6,62.2,50.1,54.3,49.8,44.2,82,67,40,30.17,30.05,8,2,8,0.00
2013-10-19,56.4,53.7,51.0,50.0,47.3,44.7,80,79,77,30.21,30.16,2,0,2,0.00
2013-10-20,78.4,68.7,60.4,61.3,58.3,53.2,81,70,53,30.35,30.30,9,1,9,0.00
2013-10-21,78.6,66.6,57.5,63.7,56.3,49.1,80,70,52,30.34,30.25,25,1,25,0.00
2013-10-22,78.6,66.7,57.7,64.5,57.0,47.6,81,71,60,30.28,30.19,25,1,25,0.00
2013-10-23,78.6,66.0,57.7,66.2,55.9,47.0,81,70,59,30.26,30.16,25,1,25,0.00
2013-10-24,76.8,66.6,59.1,63.6,56.6,48.8,81,71,53,30.25,30.18,4,1,4,0.00
2013-10-25,79.8,66.9,58.6,64.1,56.6,48.2,81,70,52,30.24,30.18,25,1,25,0.00
2013-10-26,79.5,66.6,55.9,64.0,56.8,46.5,81,71,56,30.30,30.22,25,1,25,0.00
2013-10-27,77.1,66.3,59.7,63.0,57.0,50.1,81,72,60,30.31,30.24,8,1,8,0.00
2013-10-28,76.8,66.7,61.3,64.4,57.3,51.3,81,72,60,30.26,30.15,9,1,9,0.00
2013-10-29,77.1,66.5,59.3,65.1,57.0,48.3,81,72,61,30.17,30.03,8,1,8,0.00
2013-10-30,73.2,64.0,56.1,62.8,55.4,48.0,82,74,66,30.11,30.02,7,1,7,0.00
2013-10-31,79.5,65.9,58.1,61.9,54.2,48.5,81,67,43,30.21,30.10,13,1,13,0.00
2013-11-1,76.6,63.7,56.6,59.4,54.8,49.8,82,74,48,30.22,30.17,7,1,7,0.00
2013-11-2,72.6,62.8,56.4,60.7,55.3,49.2,82,77,64,30.20,30.13,14,2,14,0.00
2013-11-3,71.4,65.6,60.0,62.6,58.6,52.3,82,78,68,30.15,30.03,20,3,20,0.04
2013-11-4,74.3,67.6,61.3,62.0,58.3,54.0,82,73,58,30.05,29.65,20,6,20,0.04
2013-11-5,69.8,63.6,55.9,60.0,55.8,48.0,83,76,57,29.65,29.45,33,4,33,0.33
2013-11-6,72.8,59.2,50.1,55.9,49.2,42.3,82,71,47,29.96,29.57,7,1,7,0.02
2013-11-7,75.2,61.0,49.8,59.7,52.0,43.5,82,73,50,30.18,29.96,13,1,13,0.00
2013-11-8,72.5,63.5,57.0,62.0,55.4,48.3,82,75,66,30.19,30.13,9,1,9,0.00
2013-11-9,73.2,63.6,54.1,61.8,55.1,45.4,82,74,63,30.16,30.02,14,2,14,0.00
2013-11-10,67.8,62.0,53.7,57.2,54.1,48.1,83,76,57,30.06,29.62,29,5,29,1.00
2013-11-11,60.9,56.4,50.9,52.4,48.4,45.5,83,75,63,29.72,29.43,18,4,18,0.53
2013-11-12,66.9,60.4,53.9,53.1,50.1,45.1,83,69,59,29.98,29.72,21,6,21,0.00
2013-11-13,67.6,63.0,54.5,53.9,52.0,49.1,83,68,59,30.00,29.89,25,6,25,0.00
2013-11-14,69.0,62.2,52.8,55.1,51.8,47.8,83,69,54,30.02,29.94,17,2,17,0.00
2013-11-15,72.1,61.1,52.3,55.0,50.9,47.1,83,70,50,30.02,29.91,19,2,19,0.00
2013-11-16,64.0,62.1,59.7,51.9,49.4,46.6,74,63,55,30.15,30.02,25,11,25,0.02
2013-11-17,71.4,60.7,52.8,54.3,51.4,47.8,83,72,52,30.21,30.13,25,1,25,0.00
2013-11-18,68.3,60.8,51.4,55.2,50.3,45.6,82,69,52,30.15,29.82,18,2,25,0.02
2013-11-19,67.2,60.0,54.3,58.0,51.0,46.1,83,73,51,29.83,29.66,20,4,20,1.20
2013-11-20,64.0,58.4,52.8,55.9,51.9,46.5,83,79,60,29.81,29.58,20,3,20,0.43
2013-11-21,60.0,52.9,48.0,48.7,44.0,39.3,83,73,50,29.79,29.64,25,2,25,0.39
2013-11-22,55.9,53.4,51.4,47.9,47.1,45.1,83,79,70,29.65,29.50,61,5,61,1.42
2013-11-23,57.5,49.8,45.1,47.7,43.5,39.5,84,79,61,29.69,29.46,25,3,25,0.74
2013-11-24,53.2,47.1,41.7,46.4,41.2,36.2,84,80,75,29.76,29.63,10,1,10,0.57
2013-11-25,59.3,46.4,39.0,46.5,37.2,30.5,83,71,52,29.91,29.74,24,4,24,0.04
2013-11-26,48.0,42.7,37.7,32.5,29.1,26.0,70,59,50,30.02,29.84,16,4,16,0.00
2013-11-27,48.7,42.1,34.1,34.4,30.7,27.4,79,65,49,30.28,30.02,21,5,21,0.00
2013-11-28,46.5,44.0,39.5,41.7,38.9,34.3,84,82,79,30.35,30.27,25,1,25,0.14
2013-11-29,60.9,48.0,38.4,44.7,39.3,33.5,84,73,52,30.30,30.17,16,2,16,0.00
2013-11-30,56.8,55.5,54.6,46.0,44.6,42.6,70,67,60,29.87,29.83,26,13,26,0.02
2013-12-1,61.7,58.0,55.0,51.9,46.7,42.6,77,66,59,29.83,29.66,37,15,37,0.18
2013-12-2,61.1,56.2,53.2,52.7,48.9,45.6,83,77,71,30.15,29.74,25,3,25,0.51
2013-12-3,62.9,56.2,53.0,49.9,40.6,36.7,81,57,41,30.27,30.13,33,9,33,0.02
2013-12-4,61.8,50.5,41.7,40.5,37.9,35.5,83,64,42,30.30,30.23,19,2,19,0.00
2013-12-5,61.7,48.2,39.0,48.9,41.3,34.0,84,78,61,30.25,30.18,8,1,8,0.00
2013-12-6,55.9,50.8,45.5,47.3,43.2,40.3,83,76,61,30.19,30.00,8,1,8,0.00
2013-12-7,62.4,48.7,39.7,46.0,39.1,34.9,84,71,42,30.39,30.04,8,1,8,0.00
2013-12-8,63.3,50.0,40.2,47.5,42.0,35.4,84,75,51,30.48,30.37,11,1,11,0.00
2013-12-9,58.6,51.8,46.2,52.3,45.6,39.2,83,80,74,30.50,30.43,5,0,5,0.12
2013-12-10,64.5,51.1,40.8,52.3,40.9,33.7,81,69,48,30.56,30.44,25,1,25,0.00
2013-12-11,63.5,52.3,42.8,44.1,41.0,37.1,82,67,44,30.59,30.53,18,2,18,0.00
2013-12-12,61.3,46.9,39.0,47.6,39.9,34.5,84,78,59,30.56,30.40,7,0,7,0.00
2013-12-13,59.9,48.0,40.2,48.2,40.5,34.8,83,76,57,30.40,30.30,7,1,7,0.00
2013-12-14,59.9,49.3,40.1,47.2,41.4,34.7,83,75,55,30.47,30.35,6,1,6,0.00
2013-12-15,57.0,49.8,43.5,50.0,43.8,38.0,83,80,72,30.53,30.43,6,1,6,0.00
2013-12-16,63.6,49.3,39.5,41.0,37.1,33.8,85,65,39,30.58,30.49,10,2,10,0.00
2013-12-17,64.5,51.1,41.1,44.4,37.7,33.7,80,62,33,30.55,30.44,13,2,13,0.00
2013-12-18,59.1,45.4,35.9,43.5,36.5,30.9,84,73,41,30.45,30.33,7,1,7,0.00
2013-12-19,54.3,45.0,38.3,46.3,39.7,33.5,84,82,74,30.35,30.25,25,0,25,0.00
2013-12-20,65.8,50.9,42.0,48.0,42.5,37.5,84,74,48,30.55,30.26,10,1,10,0.00
2013-12-21,62.0,49.9,37.9,48.0,39.2,32.9,84,68,45,30.63,30.53,16,2,16,0.00
2013-12-22,60.0,46.8,36.8,44.7,38.9,32.4,84,75,52,30.61,30.46,25,0,25,0.00
2013-12-23,60.4,44.6,36.1,47.2,38.3,31.2,84,79,55,30.46,30.30,3,0,3,0.00
2013-12-24,59.7,45.2,35.7,43.7,37.8,31.3,84,76,53,30.31,30.18,4,0,4,0.00
2013-12-25,61.7,49.8,42.0,48.5,42.6,37.1,84,77,61,30.19,29.83,17,2,25,0.00
2013-12-26,59.7,53.1,46.9,50.7,45.8,39.3,83,76,67,29.83,29.50,25,4,25,1.10
2013-12-27,55.9,48.9,43.3,46.5,42.8,36.7,83,80,66,29.98,29.58,6,0,6,0.04
2013-12-28,62.4,46.4,40.8,48.0,40.3,35.4,84,80,54,30.14,29.97,25,0,25,0.00
2013-12-29,60.6,51.7,43.1,51.6,45.6,38.1,83,80,69,30.19,30.12,9,1,9,1.68
2013-12-30,61.3,54.7,49.2,49.6,46.4,43.6,83,74,61,30.19,30.11,17,3,17,5.98
2013-12-31,59.1,55.5,51.2,45.6,44.2,42.7,73,66,58,30.13,30.07,25,8,25,0.00
2014-1-1,57.0,50.3,45.1,47.6,44.3,40.4,84,80,70,30.19,30.08,4,0,5,0.00
2014-1-2,59.3,52.0,45.5,49.4,44.8,39.9,84,77,61,30.20,30.13,25,2,25,0.00